Etusivu
METAR-TAF:

METAR-TAF

Lentoasemat :

Mo i Rana, Norja

Leveyspiiri: 66-22N, Pituuspiiri: 014-18E, korkeus merenpinnasta: 7 m

Tämänhetkinen sää

Tämä raportti tehtiin 46 minuuttia sitten, kello 10.50 UTC
Tuuli 10 kn lännestä/luoteesta
Lämpötila 10°C
Kosteus 43%
Ilmanpaine 1014 hPa
Näkyvyys 10 km tai enemmän
Hajanaisia pilviä 4500 ft:n korkeudessa

METAR: ENRA 291050Z 29010KT 9999 SCT045 10/M02 Q1014

Aika: 13:36 (11:36 UTC)

Sääennuste

Tämä raportti tehtiin 3 tuntia ja 36 minuuttia sitten, kello 08.00 UTC
Ennuste voimassa 29. päivästä klo 09 UTC - 29. päivään klo 18 UTC
Tuuli 5 kn pohjoisen/luoteesta
Näkyvyys 10 km tai enemmän
Hajanaisia pilviä 5000 ft:n korkeudessa

TAF: ENRA 290800Z 2909/2918 34005KT 9999 SCT050

Säähavainnot ja -ennusteet yli 4000 lentoasemalta (METAR- ja TAF-raportit).

Käytössä olevat sääasemat on merkitty karttaan keltaisilla ja punaisilla pisteillä.

Aseta hiiri pisteen päälle nähdäksesi sääaseman nimen.

Klikkaa sitten nähdäksesi säähavainnot ja -ennusteet.

Kartan vaihtaminen: klikkaa mustalla rastilla varustettuja vihreitä pisteitä, niin voit zoomata sisään; viivalla varustettua vihreää pistettä, niin voit zoomata ulos tai vihreitä nuolia, niin pääset viereisille kartoille.


METAR-TAF: